Skip Navigation Links Skip Navigation Links

Current Weather

Person County, Roxboro, N.C.

For information only: do not use for flight planning or navigation.
Latest weather
Observation time Wednesday, February 20, 2019 1:15 PM EST
Local time Wednesday, February 20, 2019 1:37 PM EST
Flight conditions Instrument Meteorological Conditions
Winds
Wind direction North (10°)
Wind speed 7 mph
Visibility 1.5 mi.
Present weather light rain
Sky condition
Ceiling 500 ft. overcast
Cloud layer overcast 500 ft.
Temperature 32°F
Dewpoint 32°F
Altimeter 30.32 in.Hg
Derived measurements
Relative humidity 100%
Wind chill 26°F
Density altitude -1592 ft.
Remarks
Fully automated report.
Automated weather observing station with precipitation discriminator.
METAR KTDF 201815Z AUTO 01006KT 1 1/2SM -RA OVC005 00/00 A3032 RMK AO2

Settings

Location code

InnerDrive.Weather 4.0.6770.0 Release CLR 4.0.30319.42000
Copyright ©2018 Inner Drive Technology. All rights reserved. Portions Copyright ©1986-2018 David Braverman.

Find weather

Site navigation


Skip Navigation Links

Place info

Page info

PayPal - The safer, easier way to pay online!

Return home.

Copyright ©2019 Inner Drive Technology. Purveyors of fine, hand-crafted computer software. Page printed 2019-02-20T18:37:19 UTC.